Poplar Bluff, MO

2:32 PM CDT on October 31, 2014 (GMT -0500)
Walnut Ridge Regional | Change Station
CLOSE
Current Station
Airport
Location: Walnut Ridge,
Elevation: 272 ft
Nearby Weather Stations
Active Advisory: Freeze Warning

Elev 272 ft 36.12 °N, 90.93 °W | Updated 17 minutes ago

Clear
Clear
57 °F
Feels Like 57 °F
N
24
Wind Variable Wind from NNW
Gusts 32 mph

Today
High -- | Low -- °F
--% Chance of Precip.
Yesterday
High -- | Low -- °F
Precip. -- in
7:24 AM 6:05 PM
First Quarter, 58% visible
Pressure 30.19 in
Visibility 10.0 miles
Clouds Clear
Dew Point 25 °F
Humidity 29%
Rainfall 0.00 in
Snow Depth Not available.
UV 4 out of 12
Pollen 1.20 out of 12
Air Quality Not available.
Flu Activity Not available.
METAR KARG 311915Z AUTO 34021G28KT 10SM CLR 14/M04 A3019 RMK AO1

More Conditions Fewer Conditions

Pressure 30.19 in
Visibility 10.0 miles
Clouds Clear
Dew Point 25 °F
Humidity 29%
Rainfall 0.00 in
Snow Depth Not available.
UV 4 out of 12
Pollen 1.20 out of 12
Air Quality Not available.
Flu Activity Not available.
METAR KARG 311915Z AUTO 34021G28KT 10SM CLR 14/M04 A3019 RMK AO1

More Conditions Fewer Conditions

10-Day Weather Forecast

Almanac

Astronomy

Oct. 31, 2014 Rise Set
Actual Time
Civil Twilight
Nautical Twilight
Astronomical Twilight
Moon
Length of Visible Light
Length of Day
Tomorrow will be .
, % of the Moon is Illuminated

Today's Extremes

State Highs State Lows

Community

WunderPhotos

Upload Photos

1,766,699 photos uploaded!

WunderBlogs® & News

Nearby

Air Quality

  Air Quality AQ Index Pollutant
Not available.

Snow Depth

Station Depth Elevation

Earthquake Activity

City Distance Mag. Time & Date
Minimum magnitude displayed is 2.5.

Coastal Water Temperatures

Place Temperature

Nearby Weather Stations